Stations météo

réclame
Mon MeteoGroup
Mt. St.Vincent, France (7382): Température de l'air & dewpoint: 16.04.2019 16:00:00 - 22.04.2019 16:00:00 (CEST)Mt. St.Vincent, France (7382): Vitesse du vent & gusts: 16.04.2019 16:00:00 - 22.04.2019 16:00:00 (CEST)Mt. St.Vincent, France (7382): Direction du vent: 16.04.2019 16:00:00 - 22.04.2019 16:00:00 (CEST)Mt. St.Vincent, France (7382): Ensoleillement: 16.04.2019 16:00:00 - 22.04.2019 16:00:00 (CEST)Mt. St.Vincent, France (7382): Quantités de précipitations: 16.04.2019 16:00:00 - 22.04.2019 16:00:00 (CEST)
Date & Time tt [°C] td [°C] ff [km/h] ff [knt] fx [km/h] fx [knt] dd sd [min] rr [mm]
22.04.2019 16:00:00 - - - - - - - - -
22.04.2019 15:00:00 21,1 5,4 15 8 28 15 NE 36 0,0
22.04.2019 14:00:00 20,3 5,9 11 6 35 19 NNE 60 -
22.04.2019 13:00:00 19,4 6,1 15 8 29 16 NE 60 0,0
22.04.2019 12:00:00 17,6 9,0 13 7 34 18 ENE 60 0,0
22.04.2019 11:00:00 14,8 8,7 21 11 37 20 ENE 42 0,0
22.04.2019 10:00:00 14,6 8,1 18 10 31 17 ENE 24 0,0
22.04.2019 09:00:00 12,6 7,3 16 9 29 16 ENE 0 0,0
22.04.2019 08:00:00 11,8 7,1 21 11 46 25 NE 0 -
22.04.2019 07:00:00 11,5 7,2 28 15 37 20 ENE 0 0,0
22.04.2019 06:00:00 12,1 6,8 16 9 26 14 NE 0 0,0
22.04.2019 05:00:00 11,9 6,8 16 9 28 15 NE 0 0,0
22.04.2019 04:00:00 13,1 6,7 13 7 34 18 N 0 0,0
22.04.2019 03:00:00 13,0 6,3 13 7 22 12 N 0 0,0
22.04.2019 02:00:00 11,3 6,4 9 5 22 12 NW 0 -
22.04.2019 01:00:00 11,6 6,7 15 8 29 16 WNW 0 0,0
22.04.2019 00:00:00 11,2 7,1 22 12 39 21 WNW 0 0,0
21.04.2019 23:00:00 11,8 6,7 22 12 39 21 W 0 0,0
21.04.2019 22:00:00 14,0 7,5 26 14 39 21 W 0 0,0
21.04.2019 21:00:00 15,1 6,9 5 3 18 10 WNW 0 0,0
21.04.2019 20:00:00 15,6 7,4 11 6 29 16 WNW 0 -
21.04.2019 19:00:00 16,7 7,6 8 4 16 9 WSW 0 0,0
21.04.2019 18:00:00 17,4 7,2 5 3 16 9 NW 0 0,0
21.04.2019 17:00:00 18,4 7,2 4 2 21 11 WNW 24 0,0
21.04.2019 16:00:00 17,9 7,3 11 6 26 14 W 30 0,0
21.04.2019 15:00:00 18,4 7,8 13 7 34 18 WNW 48 0,0
21.04.2019 14:00:00 18,4 8,4 16 9 44 24 WNW 42 -
21.04.2019 13:00:00 15,7 8,9 18 10 35 19 W 36 0,0
21.04.2019 12:00:00 14,8 7,6 24 13 34 18 W 48 0,0
21.04.2019 11:00:00 14,3 8,0 21 11 29 16 WNW 30 0,0
21.04.2019 10:00:00 11,6 7,3 11 6 18 10 W 30 0,0
21.04.2019 09:00:00 11,2 6,5 8 4 15 8 WSW 12 0,0
21.04.2019 08:00:00 11,7 3,2 13 7 16 9 ENE 0 -
21.04.2019 07:00:00 12,1 3,1 13 7 18 10 ENE 0 0,0
21.04.2019 06:00:00 12,4 3,3 13 7 22 12 ENE 0 0,0
21.04.2019 05:00:00 12,8 3,7 16 9 26 14 ENE 0 0,0
21.04.2019 04:00:00 13,3 3,4 18 10 26 14 ENE 0 0,0
21.04.2019 03:00:00 13,2 3,0 15 8 24 13 ENE 0 0,0
21.04.2019 02:00:00 14,2 3,0 13 7 21 11 NE 0 -
21.04.2019 01:00:00 15,2 2,7 13 7 24 13 NE 0 0,0
21.04.2019 00:00:00 16,3 2,3 11 6 24 13 NNE 0 0,0
20.04.2019 23:00:00 15,7 3,5 9 5 18 10 NNW 0 0,0
20.04.2019 22:00:00 15,2 5,4 11 6 22 12 WNW 0 0,0
20.04.2019 21:00:00 14,6 6,7 15 8 24 13 W 12 0,0
20.04.2019 20:00:00 16,9 7,3 15 8 24 13 W 60 -
20.04.2019 19:00:00 18,9 3,1 8 4 26 14 NE 48 0,0
20.04.2019 18:00:00 19,5 2,8 18 10 35 19 ENE 60 0,0
20.04.2019 17:00:00 19,4 5,8 16 9 34 18 ENE 60 0,0
20.04.2019 16:00:00 19,1 4,1 24 13 39 21 E 60 0,0
20.04.2019 15:00:00 19,7 6,4 18 10 35 19 ENE 60 0,0
20.04.2019 14:00:00 19,2 9,1 13 7 28 15 NE 60 -
20.04.2019 13:00:00 18,4 9,5 8 4 18 10 NNE 48 0,0
20.04.2019 12:00:00 18,2 9,3 4 2 21 11 NW 60 0,0
20.04.2019 11:00:00 15,9 8,4 8 4 22 12 N 42 0,0
20.04.2019 10:00:00 14,8 7,3 8 4 16 9 N 30 0,0
20.04.2019 09:00:00 12,0 5,8 2 1 24 13 NE 0 0,0
20.04.2019 08:00:00 12,5 5,4 5 3 22 12 NE 12 -
20.04.2019 07:00:00 12,9 5,1 16 9 22 12 NE 0 0,0
20.04.2019 06:00:00 13,3 4,7 15 8 21 11 NE 0 0,0
20.04.2019 05:00:00 13,7 4,8 11 6 18 10 ENE 0 0,0
20.04.2019 04:00:00 14,0 4,8 9 5 18 10 E 0 0,0
20.04.2019 03:00:00 15,1 4,5 13 7 24 13 E 0 0,0
20.04.2019 02:00:00 16,4 3,8 18 10 28 15 E 0 -
20.04.2019 01:00:00 15,7 5,0 16 9 26 14 E 0 0,0
20.04.2019 00:00:00 15,5 5,1 18 10 26 14 E 0 0,0
19.04.2019 23:00:00 16,3 5,3 16 9 28 15 E 0 0,0
19.04.2019 22:00:00 16,8 5,4 22 12 29 16 E 0 0,0
19.04.2019 21:00:00 16,6 5,2 21 11 28 15 E 0 0,0
19.04.2019 20:00:00 17,4 5,3 16 9 24 13 E 48 -
19.04.2019 19:00:00 18,6 5,4 18 10 29 16 ENE 60 0,0
19.04.2019 18:00:00 19,5 5,2 16 9 28 15 E 60 0,0
19.04.2019 17:00:00 19,8 5,4 16 9 29 16 E 60 0,0
19.04.2019 16:00:00 20,0 5,2 16 9 31 17 E 60 0,0
19.04.2019 15:00:00 19,6 5,3 18 10 34 18 E 60 0,0
19.04.2019 14:00:00 19,4 5,4 18 10 34 18 E 60 -
19.04.2019 13:00:00 18,9 5,7 16 9 28 15 ESE 60 0,0
19.04.2019 12:00:00 18,2 4,0 9 5 31 17 SE 60 0,0
19.04.2019 11:00:00 17,6 1,5 11 6 22 12 SE 54 0,0
19.04.2019 10:00:00 16,3 2,3 9 5 26 14 S 30 0,0
19.04.2019 09:00:00 14,7 1,6 9 5 21 11 SSE 0 0,0
19.04.2019 08:00:00 13,7 1,7 5 3 18 10 ESE 0 -
19.04.2019 07:00:00 13,6 0,2 13 7 24 13 S 0 0,0
19.04.2019 06:00:00 13,6 0,9 11 6 28 15 SE 0 0,0
19.04.2019 05:00:00 13,9 0,8 16 9 35 19 SSE 0 0,0
19.04.2019 04:00:00 13,9 0,5 22 12 35 19 S 0 0,0
19.04.2019 03:00:00 13,7 1,7 22 12 44 24 SW 0 0,0
19.04.2019 02:00:00 14,4 1,3 28 15 44 24 SW 0 -
19.04.2019 01:00:00 15,2 1,7 22 12 34 18 SSW 0 0,0
19.04.2019 00:00:00 15,2 3,3 15 8 22 12 S 0 0,0
18.04.2019 23:00:00 15,0 5,5 15 8 28 15 SE 0 0,0
18.04.2019 22:00:00 15,5 5,7 21 11 29 16 ESE 0 0,0
18.04.2019 21:00:00 15,8 5,4 22 12 34 18 ESE 0 0,0
18.04.2019 20:00:00 16,4 5,4 22 12 35 19 E 0 -
18.04.2019 19:00:00 17,4 5,3 24 13 39 21 ESE 0 0,0
18.04.2019 18:00:00 18,1 5,3 29 16 42 23 ESE 36 0,0
18.04.2019 17:00:00 18,5 5,0 28 15 46 25 ESE 60 0,0
18.04.2019 16:00:00 18,5 4,3 29 16 59 32 ESE 60 0,0
18.04.2019 15:00:00 18,3 4,1 35 19 57 31 ESE 60 0,0
18.04.2019 14:00:00 17,1 5,1 31 17 59 32 E 60 -
18.04.2019 13:00:00 17,0 4,0 39 21 61 33 ESE 60 0,0
18.04.2019 12:00:00 16,4 4,4 37 20 57 31 ESE 60 0,0
18.04.2019 11:00:00 15,2 3,3 37 20 55 30 ESE 60 0,0
18.04.2019 10:00:00 13,7 5,1 31 17 48 26 ESE 60 0,0
18.04.2019 09:00:00 12,0 4,5 29 16 42 23 ESE 60 0,0
18.04.2019 08:00:00 10,4 4,3 26 14 37 20 ESE 48 -
18.04.2019 07:00:00 9,7 3,6 26 14 50 27 SE 0 0,0
18.04.2019 06:00:00 10,2 3,2 34 18 52 28 SE 0 0,0
18.04.2019 05:00:00 9,5 4,1 26 14 39 21 ESE 0 0,0
18.04.2019 04:00:00 10,2 4,6 28 15 42 23 ESE 0 0,0
18.04.2019 03:00:00 11,1 5,4 26 14 41 22 SE 0 0,0
18.04.2019 02:00:00 12,0 6,1 24 13 37 20 ESE 0 -
18.04.2019 01:00:00 12,5 6,1 26 14 37 20 ESE 0 0,0
18.04.2019 00:00:00 12,4 6,2 26 14 35 19 E 0 0,0
17.04.2019 23:00:00 12,8 6,2 26 14 37 20 E 0 0,0
17.04.2019 22:00:00 12,5 7,0 24 13 34 18 E 0 0,0
17.04.2019 21:00:00 12,7 7,2 22 12 29 16 E 0 0,0
17.04.2019 20:00:00 14,1 4,7 24 13 31 17 E 24 -
17.04.2019 19:00:00 15,0 4,7 22 12 42 23 E 42 0,0
17.04.2019 18:00:00 15,4 5,3 28 15 48 26 E 54 0,0
17.04.2019 17:00:00 16,0 5,9 18 10 39 21 E 60 0,0
17.04.2019 16:00:00 15,2 8,4 22 12 41 22 E 54 0,0
17.04.2019 15:00:00 14,9 8,6 22 12 35 19 E 36 0,0
17.04.2019 14:00:00 14,4 9,0 18 10 31 17 E 54 -
17.04.2019 13:00:00 13,5 9,0 18 10 37 20 E 60 0,0
17.04.2019 12:00:00 12,7 8,4 22 12 35 19 E 54 0,0
17.04.2019 11:00:00 11,4 8,8 22 12 29 16 E 60 0,0
17.04.2019 10:00:00 11,8 8,3 9 5 15 8 E 60 0,0
17.04.2019 09:00:00 11,1 7,0 5 3 9 5 SSE 60 0,0
17.04.2019 08:00:00 8,8 6,9 8 4 9 5 SSW 48 -
17.04.2019 07:00:00 7,5 6,9 8 4 11 6 WSW 0 0,0
17.04.2019 06:00:00 7,4 6,2 9 5 11 6 SW 0 0,0
17.04.2019 05:00:00 7,5 6,1 5 3 8 4 SW 0 0,0
17.04.2019 04:00:00 7,7 6,2 4 2 8 4 W 0 0,0
17.04.2019 03:00:00 7,2 6,3 8 4 13 7 W 0 0,0
17.04.2019 02:00:00 7,6 6,2 11 6 16 9 W 0 -
17.04.2019 01:00:00 8,0 6,5 13 7 18 10 W 0 0,0
17.04.2019 00:00:00 8,1 7,2 9 5 15 8 WNW 0 0,0
16.04.2019 23:00:00 8,8 7,4 11 6 18 10 WNW 0 0,0
16.04.2019 22:00:00 9,9 7,3 11 6 21 11 WNW 0 0,0
16.04.2019 21:00:00 10,4 7,5 11 6 22 12 W 6 0,0
16.04.2019 20:00:00 11,3 8,0 8 4 22 12 WNW 24 -
16.04.2019 19:00:00 11,6 7,9 16 9 31 17 W 0 0,0
16.04.2019 18:00:00 11,9 8,4 13 7 26 14 W 0 0,0
16.04.2019 17:00:00 10,9 9,3 11 6 21 11 SSW 0 0,0
16.04.2019 16:00:00 9,7 8,5 11 6 29 16 SSW 0 0,0

tt = Température de l'air
td = dewpoint
ff = Vitesse du vent
fx = gusts
dd = Direction du vent
sd = Ensoleillement
rr = Quantités de précipitations

stations d'obs. à proximité